Time;durP1;ratioP1;P1;durP2;ratioP2;P2;SDS_P1;SDS_P2;PMS_P1;PMS_P2;Temp;Humidity;BMP_temperature;BMP_pressure;BME280_temperature;BME280_humidity;BME280_pressure;Samples;Min_cycle;Max_cycle;Signal;HPM_P1;HPM_P2
2023/10/09 00:02:53;;;;;;;25.33;3.70;;;;;;;19.16;57.80;95259.03;5076314;28;20035;-84
2023/10/09 00:05:37;;;;;;;22.30;3.15;;;;;;;19.01;57.70;95257.50;5076070;28;20052;-84
2023/10/09 00:08:03;;;;;;;23.77;3.50;;;;;;;18.78;58.74;95252.88;5076030;28;20433;-84
2023/10/09 00:10:35;;;;;;;17.88;3.05;;;;;;;18.74;58.55;95248.50;5075727;28;20031;-83
2023/10/09 00:13:01;;;;;;;18.48;2.95;;;;;;;18.86;56.57;95247.97;5075881;28;20036;-84
2023/10/09 00:15:27;;;;;;;16.08;3.00;;;;;;;18.80;57.20;95236.66;5076966;28;20040;-84
2023/10/09 00:17:55;;;;;;;18.15;2.78;;;;;;;19.05;55.94;95245.22;5076844;28;20119;-84
2023/10/09 00:20:24;;;;;;;24.58;3.38;;;;;;;18.82;56.66;95234.50;5075744;28;20441;-84
2023/10/09 00:22:51;;;;;;;17.45;2.97;;;;;;;18.75;57.68;95234.91;5059649;28;20158;-83
2023/10/09 00:25:23;;;;;;;16.90;2.72;;;;;;;18.72;57.62;95242.66;5059330;28;20057;-83
2023/10/09 00:27:48;;;;;;;21.10;3.40;;;;;;;18.84;56.42;95242.19;5075557;28;20032;-83
2023/10/09 00:30:19;;;;;;;18.33;2.92;;;;;;;18.73;57.60;95236.31;5075562;28;20489;-84
2023/10/09 00:32:58;;;;;;;16.25;2.97;;;;;;;18.65;57.90;95240.44;5075442;28;20037;-83
2023/10/09 00:35:36;;;;;;;16.38;2.60;;;;;;;18.60;57.68;95237.88;5075129;28;20111;-84
2023/10/09 00:41:24;;;;;;;20.67;3.05;;;;;;;18.55;59.42;95236.13;5074923;28;20029;-83
2023/10/09 00:43:45;;;;;;;10.48;2.60;;;;;;;18.50;59.33;95239.66;5074146;28;20323;-83
2023/10/09 00:46:32;;;;;;;32.50;3.72;;;;;;;18.36;59.21;95236.22;5075204;28;20036;-83
2023/10/09 00:49:01;;;;;;;15.43;2.75;;;;;;;18.34;59.22;95231.22;5074961;28;20028;-83
2023/10/09 00:51:27;;;;;;;29.98;3.42;;;;;;;18.47;57.18;95226.97;5075247;28;20043;-84
2023/10/09 00:53:54;;;;;;;34.47;3.53;;;;;;;18.69;56.36;95228.16;5058219;28;20033;-84
2023/10/09 00:59:08;;;;;;;21.30;3.60;;;;;;;19.63;50.78;95221.53;5075407;28;20029;-83
2023/10/09 01:01:40;;;;;;;28.10;3.75;;;;;;;20.04;49.27;95220.53;5074913;28;20429;-84
2023/10/09 01:04:17;;;;;;;21.40;3.42;;;;;;;20.22;49.02;95211.81;5075985;28;20449;-84
2023/10/09 01:07:05;;;;;;;27.98;3.53;;;;;;;20.50;47.44;95212.38;5077456;28;20082;-84
2023/10/09 01:09:37;;;;;;;30.10;3.55;;;;;;;20.69;47.01;95214.75;5095259;28;20357;-84
2023/10/09 01:12:03;;;;;;;14.52;2.53;;;;;;;20.85;46.25;95212.44;5096163;28;20038;-84
2023/10/09 01:14:41;;;;;;;15.68;2.85;;;;;;;20.83;46.13;95213.88;5077880;28;20048;-84
2023/10/09 01:17:07;;;;;;;24.33;3.15;;;;;;;20.79;46.60;95210.22;5094072;28;20028;-84
2023/10/09 01:19:33;;;;;;;19.65;3.05;;;;;;;20.31;49.26;95213.44;5088509;28;20023;-83
2023/10/09 01:22:12;;;;;;;21.95;2.97;;;;;;;20.11;49.20;95213.97;5095700;28;20023;-84
2023/10/09 01:24:41;;;;;;;17.90;3.20;;;;;;;19.81;50.37;95217.13;5072760;28;20028;-83
2023/10/09 01:27:14;;;;;;;21.20;2.85;;;;;;;19.50;51.33;95207.22;5094306;28;20036;-83
2023/10/09 01:29:41;;;;;;;16.25;3.00;;;;;;;19.32;51.19;95209.78;5094467;28;20035;-83
2023/10/09 01:32:09;;;;;;;25.30;3.25;;;;;;;19.21;51.36;95203.13;5094375;28;20475;-83
2023/10/09 01:34:50;;;;;;;22.80;3.38;;;;;;;19.33;50.39;95203.38;5094408;28;20054;-83
2023/10/09 01:37:25;;;;;;;16.83;3.25;;;;;;;19.32;50.61;95207.13;5094390;28;20024;-83
2023/10/09 01:39:52;;;;;;;23.25;3.35;;;;;;;19.15;51.47;95210.47;5078068;28;20044;-84
2023/10/09 01:42:34;;;;;;;11.02;2.85;;;;;;;18.90;51.53;95212.56;5094232;28;20028;-83
2023/10/09 01:45:46;;;;;;;15.15;2.40;;;;;;;18.82;52.00;95207.19;5079247;28;20049;-83
2023/10/09 01:47:53;;;;;;;24.10;2.90;;;;;;;18.68;53.02;95204.53;5082736;28;20031;-83
2023/10/09 01:50:30;;;;;;;22.13;3.80;;;;;;;18.72;53.05;95208.16;5078298;28;20024;-83
2023/10/09 01:52:56;;;;;;;13.38;2.65;;;;;;;18.81;51.46;95203.72;5094357;28;20451;-83
2023/10/09 01:55:29;;;;;;;24.92;4.10;;;;;;;19.19;49.82;95202.66;5094340;28;20028;-83
2023/10/09 01:57:57;;;;;;;18.10;2.70;;;;;;;19.41;49.02;95206.41;5078615;28;20028;-84
2023/10/09 02:00:24;;;;;;;25.52;3.33;;;;;;;19.75;47.95;95211.13;5077926;28;20030;-83
2023/10/09 02:02:50;;;;;;;21.77;3.33;;;;;;;19.91;47.17;95202.75;5077694;28;20024;-84
2023/10/09 02:07:51;;;;;;;28.30;4.10;;;;;;;20.46;45.62;95208.78;5094286;28;20035;-83
2023/10/09 02:13:10;;;;;;;20.70;3.22;;;;;;;20.85;44.48;95206.34;5094228;28;20032;-84
2023/10/09 02:18:18;;;;;;;23.05;3.05;;;;;;;20.66;44.91;95204.75;5094386;28;20024;-84
2023/10/09 02:20:45;;;;;;;17.85;2.80;;;;;;;20.63;45.25;95198.16;5095344;28;20341;-84
2023/10/09 02:23:20;;;;;;;23.13;3.10;;;;;;;20.58;44.92;95203.59;5094061;28;20063;-84
2023/10/09 02:25:53;;;;;;;22.65;3.10;;;;;;;20.59;45.03;95205.19;5094145;28;20027;-84
2023/10/09 02:28:18;;;;;;;31.85;3.90;;;;;;;20.73;44.58;95205.06;5095218;28;20027;-84
2023/10/09 02:30:47;;;;;;;23.42;3.10;;;;;;;20.18;47.07;95203.69;5077274;28;20338;-83
2023/10/09 02:33:27;;;;;;;21.77;3.00;;;;;;;20.01;48.45;95207.84;5093900;28;20036;-84
2023/10/09 02:35:59;;;;;;;26.58;3.40;;;;;;;20.14;46.15;95210.69;5078888;28;20434;-83
2023/10/09 02:38:26;;;;;;;20.48;3.63;;;;;;;20.03;46.62;95210.19;5094998;28;20542;-84
2023/10/09 02:41:20;;;;;;;21.33;3.28;;;;;;;20.09;46.65;95208.19;5093875;28;20038;-83
2023/10/09 02:43:55;;;;;;;18.88;3.05;;;;;;;19.53;49.87;95214.63;5081225;28;20503;-84
2023/10/09 02:46:21;;;;;;;17.50;2.70;;;;;;;19.09;51.57;95224.16;5094006;28;20023;-84
2023/10/09 02:48:53;;;;;;;14.73;2.72;;;;;;;18.86;52.08;95218.78;5093642;28;20028;-83
2023/10/09 02:53:57;;;;;;;20.60;3.22;;;;;;;18.50;54.44;95215.78;5094547;28;20032;-83
2023/10/09 02:56:43;;;;;;;22.08;3.13;;;;;;;18.19;55.92;95218.25;5093436;28;20037;-83
2023/10/09 02:59:09;;;;;;;20.13;3.30;;;;;;;18.23;54.50;95209.44;5095909;28;20419;-83
2023/10/09 03:01:35;;;;;;;24.67;3.53;;;;;;;18.09;55.54;95220.00;5097380;28;20024;-83
2023/10/09 03:04:02;;;;;;;16.52;2.80;;;;;;;18.15;55.01;95212.75;5097187;28;20221;-84
2023/10/09 03:06:31;;;;;;;24.65;3.33;;;;;;;18.07;54.65;95219.53;5080616;28;20054;-84
2023/10/09 03:09:00;;;;;;;11.18;2.58;;;;;;;17.91;55.34;95207.59;5080469;28;20047;-84
2023/10/09 03:11:26;;;;;;;24.55;2.83;;;;;;;17.88;55.64;95210.84;5080256;28;20026;-84
2023/10/09 03:13:52;;;;;;;20.70;3.63;;;;;;;18.05;54.84;95213.75;5096886;28;20020;-83
2023/10/09 03:16:21;;;;;;;20.88;3.00;;;;;;;18.12;55.31;95207.25;5080223;28;20035;-84
2023/10/09 03:18:52;;;;;;;26.33;2.97;;;;;;;18.15;54.56;95206.69;5096647;28;20033;-84
2023/10/09 03:21:18;;;;;;;19.90;4.03;;;;;;;18.17;53.72;95217.78;5096708;28;20322;-84
2023/10/09 03:23:50;;;;;;;30.95;3.47;;;;;;;18.14;54.66;95207.72;5096523;28;20031;-84
2023/10/09 03:26:20;;;;;;;22.13;3.13;;;;;;;18.01;55.48;95209.28;5096768;28;20024;-84
2023/10/09 03:28:47;;;;;;;23.65;3.10;;;;;;;17.91;55.69;95210.25;5096288;28;20024;-84
2023/10/09 03:31:12;;;;;;;14.52;3.20;;;;;;;17.93;55.41;95214.19;5096406;28;20108;-84
2023/10/09 03:33:39;;;;;;;27.85;3.38;;;;;;;17.88;55.95;95214.28;5098067;28;20462;-83
2023/10/09 03:36:09;;;;;;;21.35;2.97;;;;;;;17.75;56.03;95215.84;5098087;28;20345;-84
2023/10/09 03:38:40;;;;;;;26.63;3.22;;;;;;;18.07;55.43;95221.38;5097568;28;20057;-84
2023/10/09 03:41:06;;;;;;;20.75;3.08;;;;;;;17.93;55.83;95211.53;5080135;28;20071;-84
2023/10/09 03:43:40;;;;;;;17.80;2.65;;;;;;;17.90;56.43;95211.34;5096714;28;20051;-84
2023/10/09 03:46:20;;;;;;;22.83;3.22;;;;;;;17.77;57.00;95210.22;5096778;28;20340;-84
2023/10/09 03:48:49;;;;;;;17.70;2.72;;;;;;;17.72;58.16;95211.13;5096582;28;20466;-84
2023/10/09 03:51:21;;;;;;;19.55;2.95;;;;;;;17.65;58.36;95216.00;5096490;28;20035;-84
2023/10/09 03:53:47;;;;;;;21.75;2.97;;;;;;;17.66;58.20;95210.41;5096735;28;20035;-84
2023/10/09 03:56:15;;;;;;;23.85;3.00;;;;;;;17.71;57.60;95206.09;5096564;28;20019;-84
2023/10/09 03:58:45;;;;;;;22.55;2.65;;;;;;;17.86;57.05;95205.03;5096307;28;20380;-84
2023/10/09 04:01:24;;;;;;;20.13;3.35;;;;;;;18.23;55.47;95200.66;5079985;28;20027;-84
2023/10/09 04:03:59;;;;;;;11.50;2.30;;;;;;;18.31;54.96;95193.88;5080955;28;20016;-84
2023/10/09 04:06:31;;;;;;;22.85;3.80;;;;;;;18.44;55.23;95197.63;5096323;28;20468;-84
2023/10/09 04:08:58;;;;;;;17.52;2.88;;;;;;;18.13;56.00;95198.22;5079999;28;20420;-84
2023/10/09 04:11:24;;;;;;;23.92;3.15;;;;;;;18.02;56.42;95194.94;5096697;28;20031;-84
2023/10/09 04:13:52;;;;;;;21.90;3.63;;;;;;;17.96;56.76;95188.94;5079382;28;20028;-84
2023/10/09 04:18:54;;;;;;;22.17;3.03;;;;;;;17.77;59.04;95189.81;5097172;28;20477;-84
2023/10/09 04:21:34;;;;;;;16.77;2.78;;;;;;;17.67;59.28;95190.78;5095924;28;20116;-84
2023/10/09 04:26:44;;;;;;;15.32;2.90;;;;;;;17.63;59.07;95181.84;5097363;28;20064;-83
2023/10/09 04:29:18;;;;;;;19.17;3.05;;;;;;;17.87;57.55;95190.72;5092561;28;20057;-85
2023/10/09 04:31:51;;;;;;;16.27;2.85;;;;;;;17.77;58.54;95192.47;5080533;28;20074;-85
2023/10/09 04:39:48;;;;;;;19.08;2.72;;;;;;;17.81;57.30;95185.50;5060104;28;20032;-85
2023/10/09 04:47:49;;;;;;;20.35;3.03;;;;;;;18.37;54.50;95169.63;5075530;28;20044;-85
2023/10/09 04:50:36;;;;;;;21.88;3.25;;;;;;;18.40;54.44;95178.06;5089995;28;20032;-85
2023/10/09 04:55:53;;;;;;;;;;;;;;;18.36;54.76;95186.63;5095490;28;20028;-84
2023/10/09 04:58:24;;;;;;;23.10;3.20;;;;;;;18.15;56.32;95188.13;5095714;28;20225;-85
2023/10/09 05:30:33;;;;;;;16.55;2.70;;;;;;;18.22;54.93;95199.91;5154331;22;20051;-81
2023/10/09 05:33:27;;;;;;;18.70;2.83;;;;;;;18.13;56.31;95203.50;5078763;28;20035;-81
2023/10/09 05:36:04;;;;;;;24.10;3.40;;;;;;;17.88;58.24;95210.84;5079914;28;20105;-85
2023/10/09 05:38:30;;;;;;;21.42;2.75;;;;;;;17.86;57.86;95205.03;5090098;28;20043;-81
2023/10/09 05:41:31;;;;;;;19.63;2.83;;;;;;;17.74;57.60;95198.38;5087594;28;20085;-81
2023/10/09 05:49:46;;;;;;;20.55;3.38;;;;;;;17.80;57.63;95205.13;5034416;28;20039;-81
2023/10/09 06:11:38;;;;;;;23.13;3.83;;;;;;;18.40;57.99;95223.94;5081454;28;20030;-81
2023/10/09 06:14:03;;;;;;;27.27;2.70;;;;;;;18.50;57.49;95218.41;5096708;28;20318;-81
2023/10/09 06:24:18;;;;;;;17.92;3.42;;;;;;;18.92;57.20;95228.19;5079013;28;20020;-81
2023/10/09 06:29:38;;;;;;;25.05;2.90;;;;;;;19.15;56.71;95236.22;5080165;28;20114;-81
2023/10/09 06:35:16;;;;;;;20.95;3.40;;;;;;;19.50;56.51;95233.81;5085106;28;20024;-81
2023/10/09 06:43:36;;;;;;;21.00;2.83;;;;;;;20.06;52.76;95238.81;5083408;28;20032;-81
2023/10/09 06:46:17;;;;;;;25.75;3.65;;;;;;;20.08;53.66;95227.88;5100254;28;20024;-81
2023/10/09 06:48:55;;;;;;;13.43;2.45;;;;;;;20.19;56.41;95240.59;5067693;28;20143;-81
2023/10/09 06:58:55;;;;;;;19.92;2.67;;;;;;;20.32;58.42;95238.16;5082725;28;20344;-81
2023/10/09 07:06:50;;;;;;;14.32;2.75;;;;;;;20.32;59.00;95235.47;5084285;28;20502;-81
2023/10/09 07:09:18;;;;;;;14.15;2.65;;;;;;;20.51;56.66;95239.75;5082332;28;20403;-81
2023/10/09 07:17:44;;;;;;;20.90;3.15;;;;;;;20.95;55.25;95231.88;5083079;28;20032;-81
2023/10/09 07:24:43;;;;;;;14.45;2.85;;;;;;;21.33;52.86;95226.72;5100094;28;20424;-81
2023/10/09 07:27:14;;;;;;;17.67;2.47;;;;;;;21.42;53.38;95228.59;5081110;28;20085;-81
2023/10/09 07:29:49;;;;;;;17.77;2.90;;;;;;;21.52;53.77;95224.81;5082033;28;20039;-81
2023/10/09 07:32:21;;;;;;;23.92;3.13;;;;;;;21.63;57.47;95231.38;5082825;28;20031;-81
2023/10/09 07:34:54;;;;;;;22.73;2.90;;;;;;;21.68;62.39;95227.81;5082161;28;20122;-81
2023/10/09 07:37:22;;;;;;;15.48;2.72;;;;;;;21.71;60.31;95225.25;5099071;28;20085;-81
2023/10/09 07:39:57;;;;;;;25.05;3.50;;;;;;;21.66;58.96;95227.31;5081906;28;20516;-81
2023/10/09 07:50:23;;;;;;;20.08;3.58;;;;;;;22.03;55.50;95231.16;5099198;28;20085;-81
2023/10/09 07:52:49;;;;;;;21.10;3.00;;;;;;;22.12;55.41;95233.00;5081245;28;20028;-81
2023/10/09 07:55:39;;;;;;;14.15;2.40;;;;;;;22.18;54.79;95232.50;5081523;28;20105;-81
2023/10/09 07:58:10;;;;;;;18.08;3.33;;;;;;;22.33;55.68;95230.38;5083136;28;20109;-81
2023/10/09 08:00:36;;;;;;;13.50;3.17;;;;;;;22.44;52.45;95223.59;5082298;28;20079;-81
2023/10/09 08:03:02;;;;;;;21.45;3.72;;;;;;;22.57;51.67;95226.38;5099253;28;20031;-81
2023/10/09 08:05:33;;;;;;;14.52;2.85;;;;;;;22.62;50.68;95218.16;5081237;28;20168;-81
2023/10/09 08:08:29;;;;;;;23.88;2.88;;;;;;;22.73;51.73;95219.38;5098813;28;20046;-81
2023/10/09 08:16:24;;;;;;;18.15;2.97;;;;;;;23.06;48.57;95211.75;5090137;28;20394;-81
2023/10/09 08:18:51;;;;;;;20.25;2.80;;;;;;;23.20;50.16;95219.50;5098110;28;20024;-81
2023/10/09 08:21:19;;;;;;;17.25;3.10;;;;;;;23.32;49.50;95213.44;5080987;28;20028;-81
2023/10/09 08:23:48;;;;;;;26.58;2.92;;;;;;;23.37;49.77;95215.91;5080438;28;20055;-81
2023/10/09 08:26:14;;;;;;;16.17;3.30;;;;;;;23.52;48.83;95215.28;5080881;28;20059;-81
2023/10/09 08:28:45;;;;;;;22.58;3.17;;;;;;;23.64;50.33;95216.44;5080202;28;20044;-81
2023/10/09 08:31:19;;;;;;;14.07;3.10;;;;;;;23.72;47.92;95216.34;5080413;28;20046;-82
2023/10/09 08:33:56;;;;;;;19.25;2.95;;;;;;;23.86;48.52;95217.94;5098385;28;20340;-81
2023/10/09 08:36:22;;;;;;;20.75;3.00;;;;;;;23.96;51.94;95216.75;5098342;28;20340;-81
2023/10/09 08:38:48;;;;;;;18.35;3.13;;;;;;;24.20;44.04;95218.69;5079817;28;20031;-81
2023/10/09 08:41:22;;;;;;;21.52;2.97;;;;;;;24.50;48.80;95225.69;5080454;28;20027;-82
2023/10/09 08:43:52;;;;;;;21.48;3.30;;;;;;;24.90;45.27;95219.66;5081672;28;20039;-81
2023/10/09 08:46:29;;;;;;;14.98;2.28;;;;;;;24.84;46.68;95215.66;5080348;28;20060;-82
2023/10/09 08:49:05;;;;;;;19.27;3.17;;;;;;;25.13;41.70;95206.50;5080250;28;20391;-82
2023/10/09 08:51:30;;;;;;;17.83;3.15;;;;;;;25.20;40.72;95211.28;5079962;28;20039;-82
2023/10/09 08:53:56;;;;;;;29.35;3.50;;;;;;;25.21;38.39;95204.03;5079854;28;20352;-82
2023/10/09 08:56:23;;;;;;;26.25;3.10;;;;;;;25.41;44.20;95216.47;5062940;28;20322;-82
2023/10/09 08:58:59;;;;;;;28.70;3.40;;;;;;;25.65;38.05;95211.34;5079645;28;20040;-82
2023/10/09 09:01:25;;;;;;;17.75;3.67;;;;;;;25.66;44.21;95202.97;5079871;28;20020;-82
2023/10/09 09:03:55;;;;;;;22.35;3.22;;;;;;;25.91;37.38;95199.34;5079974;28;20028;-81
2023/10/09 09:06:21;;;;;;;24.35;3.65;;;;;;;26.06;36.68;95197.81;5080433;28;20448;-82
2023/10/09 09:08:47;;;;;;;31.05;3.08;;;;;;;26.31;36.54;95203.78;5079479;28;20039;-81
2023/10/09 09:11:17;;;;;;;18.60;2.58;;;;;;;26.38;38.23;95197.78;5079902;28;20040;-81
2023/10/09 09:14:05;;;;;;;30.35;3.45;;;;;;;26.36;36.69;95198.13;5080402;28;20028;-82
2023/10/09 09:16:33;;;;;;;27.27;3.90;;;;;;;26.46;34.43;95196.81;5080269;28;20028;-82
2023/10/09 09:21:40;;;;;;;25.92;3.80;;;;;;;26.66;35.62;95194.94;5080333;28;20028;-81
2023/10/09 09:26:58;;;;;;;19.42;3.20;;;;;;;26.98;34.36;95187.97;5082025;28;20028;-81
2023/10/09 09:29:26;;;;;;;24.27;3.15;;;;;;;27.24;34.80;95192.69;5079375;28;20030;-82
2023/10/09 09:32:15;;;;;;;29.25;2.92;;;;;;;27.10;36.38;95191.28;5079710;28;20032;-81
2023/10/09 09:34:54;;;;;;;22.70;3.47;;;;;;;27.12;32.95;95188.25;5082216;28;20036;-82
2023/10/09 09:37:28;;;;;;;34.90;4.00;;;;;;;27.20;33.38;95183.78;5097167;28;20052;-81
2023/10/09 09:39:54;;;;;;;27.08;3.80;;;;;;;27.27;34.40;95177.75;5080379;28;20063;-82
2023/10/09 09:42:25;;;;;;;21.60;3.33;;;;;;;27.44;35.40;95181.91;5079064;28;20118;-82
2023/10/09 09:44:51;;;;;;;17.90;3.17;;;;;;;27.47;35.82;95183.88;5079725;28;20440;-82
2023/10/09 09:47:29;;;;;;;18.20;3.45;;;;;;;27.61;33.87;95180.72;5096913;28;20036;-82
2023/10/09 09:50:13;;;;;;;21.35;3.85;;;;;;;27.65;32.18;95185.03;5081088;28;20028;-82
2023/10/09 09:52:39;;;;;;;27.75;4.38;;;;;;;27.74;32.82;95173.22;5081390;28;20039;-82
2023/10/09 09:55:14;;;;;;;20.40;3.15;;;;;;;27.63;31.46;95179.22;5097135;28;20039;-82
2023/10/09 09:57:40;;;;;;;28.95;4.00;;;;;;;27.91;33.43;95178.16;5079748;28;20035;-82
2023/10/09 10:00:27;;;;;;;33.13;3.80;;;;;;;27.82;32.99;95172.22;5079199;28;20032;-82
2023/10/09 10:02:57;;;;;;;21.85;3.55;;;;;;;27.96;31.42;95171.66;5081848;28;20028;-82
2023/10/09 10:05:27;;;;;;;21.63;3.40;;;;;;;28.09;32.82;95174.97;5079170;28;20038;-81
2023/10/09 10:07:55;;;;;;;37.38;4.32;;;;;;;28.02;30.87;95172.94;5095789;28;20408;-82
2023/10/09 10:11:04;;;;;;;27.23;4.03;;;;;;;28.01;31.25;95170.59;5079305;28;20054;-82
2023/10/09 10:13:40;;;;;;;26.98;3.95;;;;;;;28.00;30.30;95166.34;5081283;28;20040;-82
2023/10/09 10:19:39;;;;;;;34.33;3.22;;;;;;;28.21;31.48;95164.03;5078461;28;20138;-82
2023/10/09 10:21:41;;;;;;;22.40;3.35;;;;;;;28.26;30.03;95160.22;5085759;28;20044;-82
2023/10/09 10:24:28;;;;;;;24.77;3.65;;;;;;;28.45;30.53;95156.63;5079222;28;20060;-81
2023/10/09 10:27:27;;;;;;;33.38;4.15;;;;;;;28.38;29.78;95153.88;5096431;28;20040;-81
2023/10/09 10:30:09;;;;;;;20.92;3.40;;;;;;;28.26;29.01;95159.44;5096486;28;20038;-82
2023/10/09 10:32:53;;;;;;;29.67;4.15;;;;;;;28.38;29.05;95145.00;5078629;28;20035;-82
2023/10/09 10:35:32;;;;;;;20.55;3.35;;;;;;;28.21;28.87;95142.47;5096761;28;20040;-82
2023/10/09 10:40:40;;;;;;;21.95;3.22;;;;;;;28.63;28.49;95140.72;5080129;28;20039;-82
2023/10/09 10:43:31;;;;;;;29.13;4.80;;;;;;;28.50;29.59;95134.00;5079804;28;20095;-82
2023/10/09 10:46:04;;;;;;;26.25;3.58;;;;;;;28.77;27.58;95128.56;5082609;28;20115;-81
2023/10/09 10:48:37;;;;;;;23.80;4.20;;;;;;;28.69;27.97;95119.59;5078224;28;20424;-82
2023/10/09 10:51:04;;;;;;;22.23;3.13;;;;;;;28.80;28.12;95122.44;5079213;28;20039;-82
2023/10/09 10:53:47;;;;;;;31.60;4.28;;;;;;;29.04;27.07;95115.78;5078447;28;20123;-82
2023/10/09 10:58:54;;;;;;;16.13;2.92;;;;;;;28.91;28.70;95103.72;5095845;28;20269;-82
2023/10/09 11:01:24;;;;;;;16.98;3.35;;;;;;;29.09;28.45;95098.50;5080237;28;20348;-81
2023/10/09 11:03:56;;;;;;;26.88;3.92;;;;;;;29.11;27.56;95096.22;5096294;28;20443;-82
2023/10/09 11:06:41;;;;;;;24.55;3.25;;;;;;;29.17;28.08;95094.75;5096566;28;20440;-82
2023/10/09 11:09:35;;;;;;;30.45;3.42;;;;;;;29.42;28.37;95088.84;5077777;28;20344;-82
2023/10/09 11:12:11;;;;;;;23.08;3.92;;;;;;;29.67;27.83;95085.56;5080897;28;20039;-82
2023/10/09 11:14:46;;;;;;;21.27;3.92;;;;;;;29.59;27.37;95084.72;5073096;28;20029;-82
2023/10/09 11:17:25;;;;;;;22.15;3.72;;;;;;;29.56;27.58;95085.47;5074243;28;20349;-82
2023/10/09 11:19:52;;;;;;;23.38;3.78;;;;;;;29.54;28.01;95074.28;5072235;28;20029;-82
2023/10/09 11:22:36;;;;;;;26.85;3.78;;;;;;;29.59;28.38;95065.84;5066841;28;20028;-82
2023/10/09 11:25:11;;;;;;;;;;;;;;;29.30;28.37;95073.66;5079520;28;20032;-82
2023/10/09 11:27:39;;;;;;;28.73;3.55;;;;;;;29.57;28.42;95068.13;5069094;28;20229;-82
2023/10/09 11:30:21;;;;;;;22.17;3.58;;;;;;;29.55;27.67;95058.84;5090325;28;20101;-82
2023/10/09 11:32:49;;;;;;;29.00;3.20;;;;;;;29.54;27.55;95052.69;5081448;28;20031;-82
2023/10/09 11:35:27;;;;;;;19.90;3.70;;;;;;;29.72;28.97;95052.84;5063271;28;20044;-82
2023/10/09 11:37:59;;;;;;;21.90;3.50;;;;;;;29.56;27.66;95058.50;5065180;28;20344;-82
2023/10/09 11:40:32;;;;;;;22.08;3.83;;;;;;;29.50;26.83;95049.19;5078882;28;20059;-82
2023/10/09 11:43:00;;;;;;;28.95;3.70;;;;;;;29.62;27.15;95045.41;5070286;28;20028;-82
2023/10/09 11:45:31;;;;;;;29.45;3.83;;;;;;;29.86;27.73;95046.75;5079354;28;20024;-82
2023/10/09 11:47:58;;;;;;;22.85;3.38;;;;;;;29.59;27.15;95046.94;5081574;28;20035;-82
2023/10/09 11:50:43;;;;;;;26.20;2.92;;;;;;;29.56;27.94;95041.53;5099390;28;20112;-82
2023/10/09 11:55:50;;;;;;;19.90;3.50;;;;;;;29.74;27.61;95026.22;5082628;28;20441;-82
2023/10/09 11:58:22;;;;;;;17.70;3.30;;;;;;;29.75;26.52;95037.78;5081072;28;20109;-82
2023/10/09 12:00:56;;;;;;;16.30;2.85;;;;;;;29.44;26.62;95020.97;5081678;28;20040;-82
2023/10/09 12:03:28;;;;;;;20.27;3.78;;;;;;;29.67;27.34;95017.31;5081555;28;20383;-82
2023/10/09 12:06:12;;;;;;;20.25;3.25;;;;;;;29.83;27.15;95017.00;5096191;28;21696;-82
2023/10/09 12:08:38;;;;;;;23.17;3.20;;;;;;;29.95;27.78;95008.59;5062175;28;20036;-81
2023/10/09 12:11:08;;;;;;;21.98;3.35;;;;;;;29.77;26.84;95014.66;5060356;28;20048;-81
2023/10/09 12:13:33;;;;;;;17.95;3.38;;;;;;;30.11;27.71;95005.63;5060983;28;20036;-80
2023/10/09 12:15:59;;;;;;;19.27;3.17;;;;;;;30.10;27.02;95003.28;5060626;28;20036;-81
2023/10/09 12:18:24;;;;;;;18.17;2.83;;;;;;;30.18;27.05;95000.25;5078929;28;20043;-80
2023/10/09 12:20:51;;;;;;;23.33;3.00;;;;;;;30.21;27.02;94997.97;5079972;28;20077;-79
2023/10/09 12:23:22;;;;;;;20.05;3.30;;;;;;;30.18;26.30;95002.94;5071354;28;20103;-82
2023/10/09 12:25:51;;;;;;;13.77;2.75;;;;;;;30.00;26.30;95004.75;5068677;28;20016;-81
2023/10/09 12:28:20;;;;;;;15.80;3.00;;;;;;;29.97;26.96;94997.41;5076495;28;20334;-83
2023/10/09 12:30:50;;;;;;;18.33;2.97;;;;;;;30.21;26.95;94993.31;5095395;28;20040;-81
2023/10/09 12:33:16;;;;;;;21.48;3.40;;;;;;;29.82;26.55;94994.63;5079087;28;20039;-82
2023/10/09 12:35:47;;;;;;;17.60;3.20;;;;;;;29.96;26.09;94996.63;5071825;28;20036;-81
2023/10/09 12:38:18;;;;;;;15.90;2.75;;;;;;;30.10;27.01;94993.28;5060549;28;20043;-82
2023/10/09 12:40:50;;;;;;;25.40;3.38;;;;;;;29.75;26.20;94984.56;5062722;28;20031;-82
2023/10/09 12:43:19;;;;;;;18.58;3.13;;;;;;;29.98;27.71;94983.53;5074921;28;20039;-81
2023/10/09 12:45:46;;;;;;;30.88;4.00;;;;;;;30.25;26.31;94980.59;5068258;28;20353;-81
2023/10/09 12:48:12;;;;;;;21.70;3.38;;;;;;;30.07;26.33;94980.53;5060425;28;20040;-81
2023/10/09 12:50:44;;;;;;;17.45;3.42;;;;;;;30.04;26.25;94982.06;5061916;28;20315;-82
2023/10/09 12:53:10;;;;;;;18.55;3.35;;;;;;;30.10;26.79;94970.88;5067550;28;20028;-80
2023/10/09 12:55:42;;;;;;;19.02;3.08;;;;;;;29.90;26.83;94974.59;5076511;28;20031;-81
2023/10/09 12:58:09;;;;;;;26.60;3.70;;;;;;;29.87;26.81;94964.56;5075175;28;20031;-82
2023/10/09 13:00:43;;;;;;;27.02;3.65;;;;;;;29.80;26.67;94961.06;5075156;28;20130;-80
2023/10/09 13:03:18;;;;;;;26.10;3.70;;;;;;;29.85;26.73;94966.88;5080320;28;20036;-82
2023/10/09 13:05:51;;;;;;;25.85;3.60;;;;;;;30.14;27.06;94967.03;5080643;28;20042;-81
2023/10/09 13:08:21;;;;;;;23.98;3.63;;;;;;;30.01;26.43;94963.09;5080293;28;20040;-81
2023/10/09 13:10:54;;;;;;;24.95;3.13;;;;;;;29.96;26.50;94955.38;5080145;28;20036;-80
2023/10/09 13:13:19;;;;;;;;;;;;;;;30.04;26.42;94962.34;5080439;28;20035;-82
2023/10/09 13:15:44;;;;;;;15.80;2.78;;;;;;;30.01;26.61;94955.78;5097820;28;19984;-81
2023/10/09 13:18:10;;;;;;;23.65;3.47;;;;;;;30.20;26.49;94948.53;5094151;28;20071;-82
2023/10/09 13:20:36;;;;;;;22.15;2.92;;;;;;;29.93;26.92;94956.13;5091196;28;20032;-81
2023/10/09 13:23:01;;;;;;;16.88;3.03;;;;;;;29.80;27.10;94958.34;5091375;28;20040;-81
2023/10/09 13:25:32;;;;;;;13.57;3.75;;;;;;;29.97;26.59;94957.66;5097260;28;20020;-80
2023/10/09 13:27:57;;;;;;;24.08;3.25;;;;;;;30.27;26.43;94956.69;5078814;28;20348;-81
2023/10/09 13:30:23;;;;;;;19.40;3.00;;;;;;;30.15;27.08;94943.50;5079247;28;20036;-81
2023/10/09 13:32:51;;;;;;;21.98;2.88;;;;;;;30.25;26.57;94944.69;5079488;28;20432;-82
2023/10/09 13:35:27;;;;;;;21.70;3.25;;;;;;;30.38;26.83;94945.13;5065671;28;20032;-81
2023/10/09 13:37:56;;;;;;;18.95;2.70;;;;;;;30.75;27.20;94947.53;5084358;28;20027;-83
2023/10/09 13:40:28;;;;;;;17.58;2.97;;;;;;;30.33;26.47;94938.16;5097643;28;20042;-82
2023/10/09 13:42:59;;;;;;;16.75;2.90;;;;;;;30.61;26.16;94933.97;5097272;28;20058;-82
2023/10/09 13:45:28;;;;;;;15.60;2.65;;;;;;;30.53;26.76;94927.78;5097299;28;20035;-82
2023/10/09 13:47:57;;;;;;;23.77;3.22;;;;;;;30.45;26.33;94928.94;5078871;28;20028;-81
2023/10/09 13:50:32;;;;;;;23.27;3.08;;;;;;;30.25;26.87;94933.88;5079034;28;20031;-83
2023/10/09 13:52:57;;;;;;;21.38;3.15;;;;;;;30.14;27.14;94920.34;5080102;28;20039;-81
2023/10/09 13:55:29;;;;;;;18.75;2.90;;;;;;;30.33;26.98;94922.72;5097133;28;20428;-80
2023/10/09 13:57:57;;;;;;;20.87;3.50;;;;;;;30.45;27.10;94926.97;5079818;28;20031;-81
2023/10/09 14:00:41;;;;;;;24.85;3.88;;;;;;;29.95;26.99;94916.75;5097170;28;20028;-80
2023/10/09 14:03:14;;;;;;;21.08;2.80;;;;;;;29.87;26.82;94926.00;5082022;28;20031;-81
2023/10/09 14:05:54;;;;;;;17.08;2.53;;;;;;;30.36;26.66;94923.09;5063189;28;20028;-82
2023/10/09 14:08:22;;;;;;;13.85;2.75;;;;;;;30.35;26.61;94921.56;5080667;28;20051;-82
2023/10/09 14:10:49;;;;;;;24.20;3.25;;;;;;;30.46;27.08;94912.31;5079152;28;20050;-83
2023/10/09 14:13:17;;;;;;;16.35;3.10;;;;;;;30.08;28.07;94919.16;5078853;28;20444;-81
2023/10/09 14:15:45;;;;;;;16.13;2.80;;;;;;;29.95;27.16;94916.00;5079321;28;20040;-81
2023/10/09 14:18:11;;;;;;;17.13;2.63;;;;;;;30.15;27.45;94911.84;5078860;28;20028;-81
2023/10/09 14:20:41;;;;;;;19.52;3.47;;;;;;;30.25;27.53;94909.56;5096896;28;20089;-82
2023/10/09 14:23:07;;;;;;;18.75;2.55;;;;;;;30.44;27.71;94914.63;5079149;28;20032;-81
2023/10/09 14:25:39;;;;;;;17.77;3.17;;;;;;;30.08;27.81;94909.13;5078945;28;20036;-81
2023/10/09 14:28:09;;;;;;;18.85;4.13;;;;;;;29.79;28.47;94897.41;5096821;28;20085;-81
2023/10/09 14:30:41;;;;;;;15.90;3.05;;;;;;;29.86;28.33;94916.34;5096719;28;20036;-82
2023/10/09 14:33:12;;;;;;;16.65;2.90;;;;;;;29.82;28.75;94912.84;5079459;28;20032;-81